Time;durP1;ratioP1;P1;durP2;ratioP2;P2;SDS_P1;SDS_P2;PMS_P1;PMS_P2;Temp;Humidity;BMP_temperature;BMP_pressure;BME280_temperature;BME280_humidity;BME280_pressure;Samples;Min_cycle;Max_cycle;Signal;HPM_P1;HPM_P2
2022/03/28 00:01:20;;;;;;;9.87;6.77;;;;;;;15.07;59.28;101510.06;5098923;28;20213;-68
2022/03/28 00:03:48;;;;;;;11.70;7.43;;;;;;;15.00;59.53;101511.66;5105617;27;20210;-67
2022/03/28 00:06:16;;;;;;;11.03;7.60;;;;;;;14.99;59.57;101512.66;5103436;28;20996;-68
2022/03/28 00:08:43;;;;;;;12.87;8.50;;;;;;;14.95;59.47;101506.75;5102504;28;20238;-68
2022/03/28 00:11:11;;;;;;;10.90;7.33;;;;;;;14.92;59.60;101504.41;5099875;28;20324;-68
2022/03/28 00:13:39;;;;;;;11.37;7.40;;;;;;;14.90;59.62;101497.53;5100925;28;20697;-68
2022/03/28 00:16:06;;;;;;;13.87;7.97;;;;;;;14.91;59.75;101499.22;5103734;28;20305;-68
2022/03/28 00:18:36;;;;;;;10.93;7.33;;;;;;;14.87;59.60;101489.81;5100980;28;20206;-68
2022/03/28 00:21:03;;;;;;;10.13;8.00;;;;;;;14.86;60.17;101497.03;5101445;28;20213;-68
2022/03/28 00:23:32;;;;;;;10.50;7.67;;;;;;;14.84;59.53;101493.66;5101772;28;20716;-68
2022/03/28 00:26:00;;;;;;;10.60;7.63;;;;;;;14.81;59.94;101490.44;5101601;28;20598;-67
2022/03/28 00:28:27;;;;;;;11.63;8.50;;;;;;;14.82;59.62;101479.59;5101194;28;20229;-67
2022/03/28 00:30:55;;;;;;;11.73;8.27;;;;;;;14.77;59.97;101481.91;5099511;28;20258;-68
2022/03/28 00:33:23;;;;;;;12.67;9.37;;;;;;;14.76;59.73;101490.91;5098659;28;20209;-68
2022/03/28 00:35:52;;;;;;;11.37;8.67;;;;;;;14.74;59.75;101495.53;5101895;28;20725;-68
2022/03/28 00:38:20;;;;;;;10.67;7.70;;;;;;;14.77;59.78;101481.91;5100854;28;20773;-68
2022/03/28 00:40:48;;;;;;;12.27;7.90;;;;;;;14.78;60.01;101485.38;5097608;28;20653;-68
2022/03/28 00:43:15;;;;;;;12.17;8.07;;;;;;;14.73;59.80;101485.00;5100305;28;20303;-68
2022/03/28 00:45:43;;;;;;;10.93;7.80;;;;;;;14.71;59.78;101481.63;5097636;28;20231;-66
2022/03/28 00:48:26;;;;;;;;;;;;;;;;;;;;;
2022/03/28 00:50:57;;;;;;;11.83;8.53;;;;;;;14.61;60.20;101482.53;5098326;28;20213;-67
2022/03/28 00:53:26;;;;;;;14.13;8.67;;;;;;;14.59;60.49;101481.88;5097771;28;20230;-68
2022/03/28 00:55:54;;;;;;;10.27;8.10;;;;;;;14.58;60.47;101477.53;5098737;28;20553;-68
2022/03/28 00:58:22;;;;;;;12.73;8.90;;;;;;;14.61;60.21;101477.19;5101884;28;20228;-68
2022/03/28 01:00:50;;;;;;;13.90;9.00;;;;;;;14.61;60.05;101473.69;5096748;28;20364;-69
2022/03/28 01:03:18;;;;;;;13.00;8.67;;;;;;;14.54;60.58;101476.13;5101232;28;20281;-68
2022/03/28 01:05:46;;;;;;;13.73;8.47;;;;;;;14.55;60.35;101479.63;5102157;28;20258;-67
2022/03/28 01:08:15;;;;;;;13.70;8.57;;;;;;;14.50;60.27;101479.25;5097373;28;20607;-68
2022/03/28 01:10:47;;;;;;;11.90;8.93;;;;;;;14.44;60.77;101470.00;5097373;28;20355;-66
2022/03/28 01:13:17;;;;;;;12.07;8.60;;;;;;;14.48;60.74;101471.38;5101349;28;20332;-69
2022/03/28 01:15:44;;;;;;;13.03;8.27;;;;;;;14.47;60.73;101468.88;5099145;28;20641;-69
2022/03/28 01:18:11;;;;;;;13.57;8.83;;;;;;;14.43;60.79;101456.78;5105032;28;20214;-67
2022/03/28 01:20:42;;;;;;;12.83;8.67;;;;;;;14.43;60.58;101457.63;5099376;28;20203;-67
2022/03/28 01:23:11;;;;;;;11.80;8.30;;;;;;;14.42;60.76;101461.31;5103238;28;20581;-68
2022/03/28 01:25:39;;;;;;;15.07;9.07;;;;;;;14.39;60.94;101460.78;5099618;28;20206;-68
2022/03/28 01:28:07;;;;;;;13.80;9.20;;;;;;;14.37;60.64;101460.88;5095470;28;20771;-68
2022/03/28 01:30:37;;;;;;;17.33;9.00;;;;;;;14.33;60.89;101454.19;5099967;28;20231;-68
2022/03/28 01:33:06;;;;;;;10.63;8.20;;;;;;;14.29;61.38;101447.44;5099422;28;20250;-69
2022/03/28 01:35:36;;;;;;;13.77;8.77;;;;;;;14.25;61.14;101452.22;5099878;28;20235;-68
2022/03/28 01:38:06;;;;;;;13.60;8.30;;;;;;;14.24;61.39;101447.06;5096174;28;20239;-68
2022/03/28 01:40:38;;;;;;;11.77;8.47;;;;;;;14.20;61.34;101451.84;5094297;28;20202;-67
2022/03/28 01:43:06;;;;;;;12.47;8.93;;;;;;;14.15;61.38;101445.28;5099177;28;20217;-68
2022/03/28 01:45:35;;;;;;;14.10;8.53;;;;;;;14.18;61.12;101447.63;5102966;28;20211;-68
2022/03/28 01:48:02;;;;;;;13.47;9.77;;;;;;;14.14;61.37;101443.59;5101844;28;20688;-70
2022/03/28 01:50:30;;;;;;;15.47;8.70;;;;;;;14.08;61.87;101434.34;5101815;28;20293;-68
2022/03/28 01:52:58;;;;;;;14.50;9.67;;;;;;;14.11;61.34;101435.88;5101758;28;20269;-68
2022/03/28 01:55:26;;;;;;;18.30;8.93;;;;;;;14.06;61.82;101432.81;5105203;27;20217;-67
2022/03/28 01:58:02;;;;;;;13.50;9.20;;;;;;;14.06;61.53;101438.16;5106435;28;20295;-68
2022/03/28 02:00:32;;;;;;;14.47;9.30;;;;;;;14.03;61.44;101433.09;5102376;28;20262;-68
2022/03/28 02:03:00;;;;;;;14.17;9.10;;;;;;;14.00;61.62;101428.06;5106910;27;20570;-68
2022/03/28 02:05:31;;;;;;;17.77;8.97;;;;;;;13.99;61.52;101432.53;5107447;28;20279;-67
2022/03/28 02:08:02;;;;;;;13.37;8.80;;;;;;;13.99;61.46;101424.56;5104150;28;20728;-70
2022/03/28 02:10:30;;;;;;;13.57;8.80;;;;;;;13.96;61.67;101424.88;5096661;28;20267;-69
2022/03/28 02:12:59;;;;;;;15.33;9.33;;;;;;;13.94;61.69;101414.34;5105475;28;20273;-67
2022/03/28 02:15:28;;;;;;;12.90;9.63;;;;;;;13.90;61.90;101423.59;5106328;28;20243;-67
2022/03/28 02:17:56;;;;;;;12.50;8.90;;;;;;;13.88;61.80;101419.44;5104623;28;20213;-68
2022/03/28 02:20:27;;;;;;;14.13;9.13;;;;;;;13.84;62.25;101424.19;5104530;28;20222;-69
2022/03/28 02:22:54;;;;;;;11.53;9.43;;;;;;;13.85;61.95;101419.72;5102603;28;20222;-69
2022/03/28 02:25:22;;;;;;;12.87;9.13;;;;;;;13.85;61.82;101425.88;5105695;28;20379;-68
2022/03/28 02:27:50;;;;;;;14.47;9.67;;;;;;;13.85;61.86;101417.03;5100029;28;20304;-69
2022/03/28 02:30:27;;;;;;;11.37;8.60;;;;;;;13.78;61.97;101424.78;5100211;28;20207;-69
2022/03/28 02:32:56;;;;;;;13.70;9.03;;;;;;;13.81;61.97;101418.31;5103535;28;20298;-66
2022/03/28 02:35:25;;;;;;;15.20;9.30;;;;;;;13.79;61.96;101415.81;5100439;28;20221;-67
2022/03/28 02:37:54;;;;;;;13.83;9.13;;;;;;;13.75;62.23;101406.41;5102117;28;20265;-68
2022/03/28 02:40:22;;;;;;;14.03;9.13;;;;;;;13.76;61.93;101404.59;5104570;28;20220;-67
2022/03/28 02:42:50;;;;;;;14.77;9.87;;;;;;;13.73;62.37;101408.38;5099843;28;20988;-68
2022/03/28 02:45:17;;;;;;;19.00;9.17;;;;;;;13.71;62.18;101402.38;5100153;28;20301;-67
2022/03/28 02:47:46;;;;;;;16.33;9.87;;;;;;;13.71;62.16;101401.53;5102268;28;20212;-68
2022/03/28 02:50:16;;;;;;;14.70;9.70;;;;;;;13.73;62.09;101399.53;5101033;28;20783;-67
2022/03/28 02:52:44;;;;;;;14.93;9.77;;;;;;;13.71;62.12;101394.38;5099838;28;20213;-66
2022/03/28 02:55:17;;;;;;;13.50;9.73;;;;;;;13.66;62.26;101395.78;5099702;28;20210;-68
2022/03/28 02:57:45;;;;;;;12.30;8.90;;;;;;;13.58;62.89;101391.19;5100940;28;20207;-67
2022/03/28 03:00:13;;;;;;;13.17;9.03;;;;;;;13.64;62.32;101387.94;5098812;28;20207;-68
2022/03/28 03:02:43;;;;;;;13.33;9.73;;;;;;;13.64;62.38;101385.25;5102351;28;20205;-67
2022/03/28 03:05:13;;;;;;;11.23;8.90;;;;;;;13.64;61.98;101389.75;5101722;28;20278;-68
2022/03/28 03:07:40;;;;;;;17.03;10.50;;;;;;;13.57;62.41;101385.00;5103177;28;20650;-68
2022/03/28 03:10:10;;;;;;;14.47;10.67;;;;;;;13.57;62.18;101384.16;5104792;28;20226;-69
2022/03/28 03:12:39;;;;;;;13.97;9.70;;;;;;;13.54;62.36;101382.63;5102743;28;20274;-68
2022/03/28 03:15:08;;;;;;;16.97;9.83;;;;;;;13.58;62.12;101385.84;5103555;28;20293;-69
2022/03/28 03:17:36;;;;;;;12.00;9.17;;;;;;;13.52;62.28;101391.78;5102496;27;20246;-69
2022/03/28 03:20:07;;;;;;;14.93;10.47;;;;;;;13.51;62.32;101388.28;5100164;28;20263;-70
2022/03/28 03:22:37;;;;;;;15.30;10.23;;;;;;;13.48;62.33;101382.38;5100611;28;20246;-68
2022/03/28 03:25:06;;;;;;;14.63;9.97;;;;;;;13.47;62.53;101388.69;5098267;28;20321;-67
2022/03/28 03:27:43;;;;;;;13.37;9.67;;;;;;;13.48;62.39;101377.03;5097268;28;20293;-68
2022/03/28 03:30:12;;;;;;;16.40;10.97;;;;;;;13.44;62.56;101381.00;5099865;28;20327;-68
2022/03/28 03:32:40;;;;;;;14.63;10.53;;;;;;;13.36;62.90;101386.22;5101731;28;20210;-66
2022/03/28 03:35:08;;;;;;;16.40;10.67;;;;;;;13.36;62.83;101386.22;5101879;28;20217;-67
2022/03/28 03:37:37;;;;;;;15.17;10.53;;;;;;;13.36;62.76;101373.72;5100952;28;20706;-67
2022/03/28 03:40:07;;;;;;;15.07;9.90;;;;;;;13.36;62.63;101375.56;5097459;28;20286;-68
2022/03/28 03:42:34;;;;;;;15.07;10.70;;;;;;;13.34;62.43;101370.38;5107514;27;20611;-68
2022/03/28 03:45:05;;;;;;;17.70;10.97;;;;;;;13.34;62.60;101373.03;5102087;28;20334;-69
2022/03/28 03:47:33;;;;;;;15.03;10.40;;;;;;;13.34;62.44;101366.84;5101142;28;20869;-67
2022/03/28 03:50:00;;;;;;;20.43;11.57;;;;;;;13.29;62.79;101367.28;5101913;28;20221;-68
2022/03/28 03:52:28;;;;;;;18.23;10.57;;;;;;;13.30;62.39;101366.28;5098773;27;21641;-67
2022/03/28 03:54:57;;;;;;;15.27;10.77;;;;;;;13.28;62.69;101364.78;5097188;28;20573;-67
2022/03/28 03:57:26;;;;;;;14.87;10.60;;;;;;;13.22;62.81;101360.84;5100995;28;20292;-69
2022/03/28 03:59:54;;;;;;;15.60;10.00;;;;;;;13.21;62.78;101361.00;5103462;27;20229;-67
2022/03/28 04:02:27;;;;;;;14.90;10.67;;;;;;;13.18;62.92;101368.31;5103303;27;20634;-69
2022/03/28 04:04:55;;;;;;;20.47;10.70;;;;;;;13.13;63.14;101362.56;5100619;28;20267;-67
2022/03/28 04:07:23;;;;;;;16.60;11.07;;;;;;;13.11;63.18;101361.81;5105094;27;20210;-68
2022/03/28 04:09:51;;;;;;;16.73;10.27;;;;;;;13.11;62.93;101361.81;5103484;28;20228;-66
2022/03/28 04:12:20;;;;;;;17.37;10.70;;;;;;;13.07;63.16;101359.59;5101493;28;20217;-68
2022/03/28 04:14:48;;;;;;;17.27;10.70;;;;;;;13.08;63.19;101366.59;5100394;28;20222;-66
2022/03/28 04:17:16;;;;;;;17.10;10.10;;;;;;;13.07;63.08;101365.75;5098884;28;20216;-68
2022/03/28 04:19:44;;;;;;;16.43;10.73;;;;;;;13.05;63.46;101362.41;5101641;28;20371;-68
2022/03/28 04:22:11;;;;;;;21.03;11.73;;;;;;;12.99;63.51;101365.63;5105604;28;20221;-68
2022/03/28 04:24:39;;;;;;;15.60;11.13;;;;;;;12.96;63.84;101363.25;5103137;28;20218;-69
2022/03/28 04:27:07;;;;;;;15.73;11.60;;;;;;;12.96;63.65;101365.91;5108197;28;20299;-68
2022/03/28 04:29:36;;;;;;;19.17;10.93;;;;;;;12.98;63.61;101369.28;5102675;28;20694;-68
2022/03/28 04:32:04;;;;;;;16.13;10.60;;;;;;;12.95;63.76;101377.53;5101571;28;20312;-68
2022/03/28 04:34:32;;;;;;;19.47;11.27;;;;;;;12.94;63.80;101372.34;5102447;28;20206;-68
2022/03/28 04:37:00;;;;;;;16.33;10.87;;;;;;;12.88;63.97;101359.59;5094805;28;20330;-69
2022/03/28 04:39:27;;;;;;;15.17;11.47;;;;;;;12.87;64.14;101365.91;5083914;28;20293;-68
2022/03/28 04:41:55;;;;;;;22.00;12.30;;;;;;;12.85;63.99;101363.38;5083033;28;20217;-69
2022/03/28 04:44:23;;;;;;;16.27;11.50;;;;;;;12.86;63.98;101361.56;5083505;28;20294;-69
2022/03/28 04:46:52;;;;;;;16.17;11.50;;;;;;;12.80;64.24;101358.50;5084187;28;20210;-68
2022/03/28 04:49:20;;;;;;;18.73;11.07;;;;;;;12.82;64.21;101361.03;5078695;28;20233;-67
2022/03/28 04:51:48;;;;;;;15.97;11.30;;;;;;;12.78;64.32;101354.28;5082929;28;20252;-68
2022/03/28 04:54:15;;;;;;;16.00;11.30;;;;;;;12.81;64.09;101354.03;5085162;28;20235;-67
2022/03/28 04:56:43;;;;;;;17.53;12.00;;;;;;;12.75;64.40;101352.75;5082839;28;20203;-69
2022/03/28 04:59:11;;;;;;;17.70;10.90;;;;;;;12.77;64.33;101348.13;5081578;28;20303;-68
2022/03/28 05:01:39;;;;;;;17.37;11.73;;;;;;;12.75;64.43;101343.94;5084525;28;20241;-68
2022/03/28 05:04:08;;;;;;;17.20;11.43;;;;;;;12.74;64.39;101355.56;5079622;28;20693;-68
2022/03/28 05:06:36;;;;;;;15.67;10.73;;;;;;;12.70;64.58;101352.34;5085260;28;20332;-68
2022/03/28 05:09:04;;;;;;;20.27;11.97;;;;;;;12.68;64.58;101353.44;5083784;28;20235;-66
2022/03/28 05:11:31;;;;;;;23.60;13.03;;;;;;;12.70;64.71;101356.81;5083500;28;20349;-68
2022/03/28 05:14:00;;;;;;;19.90;12.27;;;;;;;12.69;64.56;101366.63;5081754;28;20214;-68
2022/03/28 05:16:30;;;;;;;23.83;11.87;;;;;;;12.71;64.59;101361.16;5075153;28;20195;-67
2022/03/28 05:18:58;;;;;;;17.57;11.90;;;;;;;12.64;65.11;101357.38;5076258;28;20430;-68
2022/03/28 05:21:27;;;;;;;21.30;11.90;;;;;;;12.67;64.69;101367.72;5081324;28;20295;-68
2022/03/28 05:23:55;;;;;;;19.33;12.07;;;;;;;12.60;65.02;101366.63;5083488;28;20448;-68
2022/03/28 05:26:23;;;;;;;21.53;12.27;;;;;;;12.65;64.76;101361.72;5084999;28;20202;-67
2022/03/28 05:28:50;;;;;;;19.40;11.73;;;;;;;12.66;64.97;101366.06;5081017;28;21867;-68
2022/03/28 05:31:18;;;;;;;26.00;12.93;;;;;;;12.68;64.80;101369.41;5081645;28;20325;-68
2022/03/28 05:33:46;;;;;;;17.80;11.50;;;;;;;12.66;64.79;101372.25;5083290;28;20203;-68
2022/03/28 05:36:14;;;;;;;24.13;12.13;;;;;;;12.63;64.60;101377.00;5085817;28;20226;-67
2022/03/28 05:38:44;;;;;;;19.50;12.27;;;;;;;12.58;63.69;101368.56;5086196;28;20729;-69
2022/03/28 05:41:11;;;;;;;21.00;12.13;;;;;;;12.51;63.54;101376.28;5081635;28;20223;-67
2022/03/28 05:43:39;;;;;;;20.83;12.70;;;;;;;12.48;63.51;101381.03;5089334;28;20552;-67
2022/03/28 05:46:08;;;;;;;20.70;11.80;;;;;;;12.42;63.41;101372.63;5084827;28;20203;-66
2022/03/28 05:48:36;;;;;;;21.43;12.43;;;;;;;12.40;63.43;101373.75;5078492;28;20206;-67
2022/03/28 05:51:04;;;;;;;21.00;11.37;;;;;;;12.37;63.20;101371.38;5081665;28;20546;-68
2022/03/28 05:53:31;;;;;;;19.97;12.50;;;;;;;12.37;63.33;101376.69;5089334;28;20227;-68
2022/03/28 05:56:03;;;;;;;20.10;13.07;;;;;;;12.29;63.50;101373.88;5079937;28;20235;-68
2022/03/28 05:58:32;;;;;;;19.80;12.77;;;;;;;12.30;63.50;101364.91;5082184;28;20285;-68
2022/03/28 06:01:00;;;;;;;28.20;13.20;;;;;;;12.28;63.57;101367.72;5081164;28;20278;-68
2022/03/28 06:03:28;;;;;;;21.73;12.70;;;;;;;12.32;63.34;101369.09;5081281;28;20223;-67
2022/03/28 06:06:03;;;;;;;20.30;12.67;;;;;;;12.35;63.22;101374.16;5085825;28;20293;-67
2022/03/28 06:08:32;;;;;;;27.67;13.10;;;;;;;12.37;63.09;101374.88;5087305;28;20202;-67
2022/03/28 06:11:03;;;;;;;20.87;12.90;;;;;;;12.36;63.17;101372.34;5085375;28;20315;-67
2022/03/28 06:13:34;;;;;;;18.13;13.00;;;;;;;12.39;62.90;101372.91;5076051;28;20204;-66
2022/03/28 06:16:04;;;;;;;21.57;11.87;;;;;;;12.35;62.98;101370.66;5076188;28;20221;-67
2022/03/28 06:18:32;;;;;;;29.27;13.50;;;;;;;12.38;62.92;101373.88;5083054;28;20211;-67
2022/03/28 06:21:00;;;;;;;20.87;12.93;;;;;;;12.35;62.84;101374.16;5083792;28;20216;-67
2022/03/28 06:23:28;;;;;;;22.97;12.80;;;;;;;12.35;62.89;101374.16;5088171;28;20723;-68
2022/03/28 06:25:56;;;;;;;21.03;12.87;;;;;;;12.37;62.76;101372.22;5083372;28;20684;-67
2022/03/28 06:28:25;;;;;;;27.00;13.37;;;;;;;12.41;62.53;101378.91;5081115;28;20293;-67
2022/03/28 06:30:52;;;;;;;22.97;13.27;;;;;;;12.43;62.70;101376.97;5080398;28;20856;-67
2022/03/28 06:33:20;;;;;;;32.73;14.93;;;;;;;12.44;63.06;101381.31;5085876;28;20648;-68
2022/03/28 06:35:49;;;;;;;29.23;14.43;;;;;;;12.52;62.52;101377.13;5079455;28;20257;-68
2022/03/28 06:38:17;;;;;;;27.23;13.37;;;;;;;12.46;63.23;101380.34;5100139;27;20706;-62
2022/03/28 06:40:45;;;;;;;33.87;13.33;;;;;;;12.43;63.31;101376.97;5093553;27;20729;-62
2022/03/28 06:43:12;;;;;;;30.00;14.17;;;;;;;12.37;63.46;101377.53;5099786;27;20636;-63
2022/03/28 06:45:42;;;;;;;25.23;13.70;;;;;;;12.32;63.53;101381.56;5096963;28;20219;-63
2022/03/28 06:48:10;;;;;;;24.17;13.60;;;;;;;12.38;64.20;101383.69;5102925;28;20220;-63
2022/03/28 06:50:58;;;;;;;19.90;13.10;;;;;;;12.53;63.48;101381.47;5100991;28;20692;-68
2022/03/28 06:53:25;;;;;;;25.83;13.53;;;;;;;12.62;63.59;101383.28;5100040;27;20579;-68
2022/03/28 06:55:53;;;;;;;20.33;13.30;;;;;;;12.73;63.54;101380.50;5104264;28;20214;-69
2022/03/28 06:58:21;;;;;;;23.80;12.80;;;;;;;12.74;63.66;101384.84;5105704;28;20623;-67
2022/03/28 07:00:51;;;;;;;21.30;14.17;;;;;;;12.81;63.52;101383.28;5101034;28;20222;-67
2022/03/28 07:03:18;;;;;;;21.07;13.97;;;;;;;12.91;63.46;101384.13;5103970;28;20290;-67
2022/03/28 07:05:46;;;;;;;19.30;12.47;;;;;;;12.97;63.15;101383.56;5105478;28;20270;-67
2022/03/28 07:08:14;;;;;;;18.60;12.87;;;;;;;12.96;63.29;101379.22;5101457;28;20746;-69
2022/03/28 07:10:42;;;;;;;23.20;13.23;;;;;;;12.99;63.35;101372.78;5107450;27;20570;-70
2022/03/28 07:13:10;;;;;;;20.63;13.93;;;;;;;12.89;63.91;101370.13;5105727;28;20237;-70
2022/03/28 07:15:38;;;;;;;19.47;13.83;;;;;;;12.88;63.73;101370.25;5107812;28;20291;-68
2022/03/28 07:18:08;;;;;;;21.50;13.93;;;;;;;13.08;63.52;101366.59;5109047;28;20202;-70
2022/03/28 07:20:36;;;;;;;22.37;14.30;;;;;;;13.14;63.86;101366.91;5097459;28;20610;-70
2022/03/28 07:23:05;;;;;;;19.43;13.43;;;;;;;13.18;63.48;101365.66;5107973;28;20305;-70
2022/03/28 07:25:33;;;;;;;23.20;14.10;;;;;;;13.24;63.57;101371.38;5107391;28;20241;-71
2022/03/28 07:28:07;;;;;;;22.50;12.90;;;;;;;13.34;63.78;101367.69;5104081;28;20202;-71
2022/03/28 07:30:35;;;;;;;18.40;12.17;;;;;;;13.45;63.54;101366.69;5103183;28;20347;-71
2022/03/28 07:33:04;;;;;;;21.43;13.27;;;;;;;13.50;63.21;101359.94;5110450;28;20237;-70
2022/03/28 07:35:48;;;;;;;20.37;13.67;;;;;;;13.51;62.84;101353.63;5104741;28;20221;-70
2022/03/28 07:38:15;;;;;;;18.60;13.07;;;;;;;13.50;63.46;101351.09;5107346;28;20258;-70
2022/03/28 07:40:45;;;;;;;16.40;12.90;;;;;;;13.59;63.51;101355.56;5107153;28;20210;-67
2022/03/28 07:43:13;;;;;;;18.37;13.37;;;;;;;13.69;63.13;101355.53;5107276;27;20294;-69
2022/03/28 07:45:40;;;;;;;20.00;14.07;;;;;;;13.73;62.69;101351.56;5113279;27;20662;-69
2022/03/28 07:48:08;;;;;;;18.80;12.37;;;;;;;13.75;62.46;101345.09;5107800;28;20638;-68
2022/03/28 07:50:36;;;;;;;18.07;12.57;;;;;;;13.81;62.68;101355.16;5097735;28;20239;-69
2022/03/28 07:53:06;;;;;;;20.93;12.63;;;;;;;13.87;62.14;101353.75;5104560;28;20211;-69
2022/03/28 07:55:33;;;;;;;21.40;13.00;;;;;;;13.74;63.02;101338.09;5104397;28;20341;-69
2022/03/28 07:58:03;;;;;;;21.77;12.90;;;;;;;13.83;62.69;101331.03;5102898;28;20305;-69
2022/03/28 08:00:31;;;;;;;17.43;13.27;;;;;;;13.94;62.74;101333.50;5104481;28;20296;-68
2022/03/28 08:03:00;;;;;;;20.40;13.20;;;;;;;14.10;62.26;101333.69;5107731;27;20737;-68
2022/03/28 08:05:28;;;;;;;20.47;13.13;;;;;;;14.23;62.32;101334.19;5103455;28;20242;-68
2022/03/28 08:07:56;;;;;;;22.70;12.40;;;;;;;14.34;61.80;101329.63;5104647;28;20273;-68
2022/03/28 08:10:26;;;;;;;17.67;12.53;;;;;;;14.38;61.38;101326.47;5106073;28;20284;-68
2022/03/28 08:12:54;;;;;;;17.97;13.87;;;;;;;14.37;62.00;101322.13;5105636;28;20255;-69
2022/03/28 08:15:22;;;;;;;23.43;13.27;;;;;;;14.53;61.07;101324.13;5101372;28;20293;-69
2022/03/28 08:17:50;;;;;;;19.53;13.37;;;;;;;14.61;60.73;101317.03;5103954;28;20686;-68
2022/03/28 08:20:18;;;;;;;18.97;12.80;;;;;;;14.63;61.40;101316.88;5101487;27;20409;-69
2022/03/28 08:22:49;;;;;;;19.90;13.57;;;;;;;14.84;60.86;101317.41;5099370;28;20673;-68
2022/03/28 08:25:19;;;;;;;18.20;12.70;;;;;;;14.99;60.58;101323.84;5104678;28;20263;-70
2022/03/28 08:27:49;;;;;;;17.17;12.80;;;;;;;15.23;59.79;101314.31;5099705;28;20209;-68
2022/03/28 08:30:17;;;;;;;20.03;13.00;;;;;;;15.36;58.89;101318.25;5099137;28;20225;-69
2022/03/28 08:32:47;;;;;;;18.87;13.07;;;;;;;15.64;59.54;101304.72;5099589;27;20238;-69
2022/03/28 08:35:16;;;;;;;17.80;12.77;;;;;;;16.09;58.27;101305.22;5099795;28;20253;-69
2022/03/28 08:37:44;;;;;;;15.93;12.00;;;;;;;17.00;55.50;101301.59;5106979;27;20565;-69
2022/03/28 08:40:14;;;;;;;17.80;13.00;;;;;;;19.61;48.95;101300.59;5100083;28;20210;-68
2022/03/28 08:42:42;;;;;;;16.70;12.60;;;;;;;23.32;39.72;101295.22;5099180;27;20323;-69
2022/03/28 08:45:14;;;;;;;17.47;12.77;;;;;;;25.75;34.32;101289.16;5098303;28;20289;-69
2022/03/28 08:47:44;;;;;;;19.50;12.30;;;;;;;28.05;31.01;101285.22;5098895;28;20289;-69
2022/03/28 08:50:31;;;;;;;16.20;12.73;;;;;;;29.91;28.26;101285.63;5099005;28;20209;-69
2022/03/28 08:52:59;;;;;;;16.57;11.63;;;;;;;29.70;27.90;101286.47;5098597;27;20795;-69
2022/03/28 08:55:37;;;;;;;;;;;;;;;;;;;;;
2022/03/28 08:58:05;;;;;;;16.97;12.33;;;;;;;30.78;26.75;101279.13;5093956;27;20575;-68
2022/03/28 09:00:34;;;;;;;15.73;11.83;;;;;;;31.09;26.11;101279.34;5100215;28;20294;-69
2022/03/28 09:03:02;;;;;;;15.83;11.93;;;;;;;32.61;24.32;101274.34;5096667;28;20308;-67
2022/03/28 09:05:32;;;;;;;16.50;12.32;;;;;;;25.68;32.23;101286.50;5098737;28;20572;-67
2022/03/28 09:08:00;;;;;;;17.55;12.35;;;;;;;20.80;42.01;101286.53;5109278;27;20198;-69
2022/03/28 09:10:32;;;;;;;18.00;11.88;;;;;;;19.69;45.10;101284.34;5098397;28;20300;-66
2022/03/28 09:13:05;;;;;;;17.20;12.57;;;;;;;19.93;45.61;101275.09;5100044;28;20234;-64
2022/03/28 09:15:48;;;;;;;16.13;11.90;;;;;;;19.88;45.93;101280.19;5097529;27;20712;-65
2022/03/28 09:18:24;;;;;;;16.90;12.25;;;;;;;20.00;46.23;101273.28;5103405;28;20658;-65
2022/03/28 09:20:59;;;;;;;19.02;12.20;;;;;;;19.78;46.74;101267.06;5101907;28;20194;-66
2022/03/28 09:23:36;;;;;;;16.88;12.43;;;;;;;20.23;45.44;101265.03;5097811;28;20243;-65
2022/03/28 09:26:09;;;;;;;18.10;11.63;;;;;;;25.82;35.93;101258.13;5103148;28;20406;-68
2022/03/28 09:28:47;;;;;;;15.38;11.80;;;;;;;31.86;25.51;101229.25;5095890;28;20289;-68
2022/03/28 09:31:22;;;;;;;20.30;12.65;;;;;;;30.42;26.28;101238.84;5097807;28;20210;-70
2022/03/28 09:33:58;;;;;;;14.15;12.38;;;;;;;28.14;29.35;101239.31;5097422;28;20580;-70
2022/03/28 09:36:41;;;;;;;15.27;12.88;;;;;;;30.63;26.45;101237.91;5101460;28;20302;-69
2022/03/28 09:39:11;;;;;;;14.30;12.80;;;;;;;31.71;25.08;101228.13;5098205;28;20230;-70
2022/03/28 09:41:39;;;;;;;17.42;12.95;;;;;;;29.33;26.97;101239.81;5098797;28;20688;-70
2022/03/28 09:44:08;;;;;;;19.13;13.63;;;;;;;31.01;25.54;101223.94;5101757;28;20639;-71
2022/03/28 09:46:37;;;;;;;17.48;13.20;;;;;;;31.93;24.50;101221.59;5098596;28;20206;-69
2022/03/28 09:49:08;;;;;;;15.32;13.18;;;;;;;34.95;21.31;101206.78;5102825;28;20209;-70
2022/03/28 09:51:37;;;;;;;13.60;12.10;;;;;;;35.89;20.41;101203.41;5102238;28;20256;-70
2022/03/28 09:54:19;;;;;;;17.20;13.82;;;;;;;33.95;21.70;101201.09;5102642;28;20232;-69
2022/03/28 09:57:08;;;;;;;15.38;12.15;;;;;;;32.46;23.43;101201.84;5099420;28;20210;-69
2022/03/28 09:59:40;;;;;;;14.52;13.02;;;;;;;33.99;21.94;101191.97;5098923;28;20271;-70
2022/03/28 10:02:18;;;;;;;15.77;12.90;;;;;;;31.46;24.27;101192.38;5103466;28;20214;-69
2022/03/28 10:04:49;;;;;;;20.60;12.90;;;;;;;33.43;22.45;101176.88;5102474;28;20205;-70
2022/03/28 10:07:17;;;;;;;16.55;12.88;;;;;;;32.62;23.45;101177.16;5104505;27;20206;-70
2022/03/28 10:09:45;;;;;;;17.02;12.50;;;;;;;32.28;23.57;101172.22;5104079;27;20221;-70
2022/03/28 10:12:14;;;;;;;16.17;13.40;;;;;;;28.26;26.96;101180.06;5106034;27;20253;-70
2022/03/28 10:14:42;;;;;;;20.40;13.13;;;;;;;29.60;26.28;101178.94;5101211;28;20220;-70
2022/03/28 10:17:14;;;;;;;15.75;12.68;;;;;;;29.86;25.30;101169.91;5105134;28;20246;-70
2022/03/28 10:19:47;;;;;;;15.00;12.25;;;;;;;32.70;22.50;101162.88;5106363;27;20209;-67
2022/03/28 10:22:26;;;;;;;21.10;13.25;;;;;;;30.39;24.60;101168.22;5106433;28;20210;-71
2022/03/28 10:24:58;;;;;;;17.75;12.05;;;;;;;29.43;26.06;101168.94;5103776;27;20214;-71
2022/03/28 10:27:27;;;;;;;17.02;12.55;;;;;;;26.69;29.20;101167.91;5103055;27;20236;-70
2022/03/28 10:29:55;;;;;;;14.32;11.98;;;;;;;24.59;32.22;101177.88;5104385;27;20210;-70
2022/03/28 10:32:22;;;;;;;17.30;13.48;;;;;;;24.60;32.87;101174.94;5105698;28;20717;-71
2022/03/28 10:34:53;;;;;;;17.23;13.85;;;;;;;26.27;31.01;101161.75;5102662;28;20205;-71
2022/03/28 10:37:34;;;;;;;17.67;12.50;;;;;;;26.85;30.02;101159.84;5104509;28;20345;-72
2022/03/28 10:40:22;;;;;;;20.77;14.75;;;;;;;27.34;29.81;101161.19;5100132;27;20229;-70
2022/03/28 10:42:53;;;;;;;20.15;13.98;;;;;;;28.41;28.31;101160.38;5101814;27;20248;-70
2022/03/28 10:45:22;;;;;;;20.20;14.48;;;;;;;31.45;23.93;101141.41;5100529;28;20293;-70
2022/03/28 10:47:53;;;;;;;18.50;14.23;;;;;;;30.02;25.31;101141.66;5105207;27;20727;-69
2022/03/28 10:50:27;;;;;;;19.10;13.27;;;;;;;29.27;26.92;101147.13;5104592;27;20228;-69
2022/03/28 10:53:08;;;;;;;17.77;13.80;;;;;;;32.15;23.29;101126.13;5103192;28;20230;-70
2022/03/28 10:55:39;;;;;;;18.00;15.43;;;;;;;29.63;25.63;101134.72;5102709;28;20205;-70
2022/03/28 10:58:18;;;;;;;18.63;14.10;;;;;;;28.28;27.86;101133.47;5103456;27;20708;-68
2022/03/28 11:01:15;;;;;;;18.27;13.90;;;;;;;28.74;27.67;101133.06;5100436;28;20225;-68
2022/03/28 11:03:45;;;;;;;18.10;14.18;;;;;;;30.25;25.44;101118.59;5096297;28;20575;-69
2022/03/28 11:06:15;;;;;;;17.67;14.88;;;;;;;30.46;24.90;101108.59;5106060;27;20301;-69
2022/03/28 11:08:45;;;;;;;15.90;14.30;;;;;;;30.23;25.28;101110.66;5102700;27;20202;-69
2022/03/28 11:11:19;;;;;;;22.88;16.15;;;;;;;31.52;23.74;101094.53;5101699;27;20210;-70
2022/03/28 11:14:03;;;;;;;17.73;14.70;;;;;;;32.67;23.20;101097.50;5101112;27;20236;-70
2022/03/28 11:16:45;;;;;;;19.80;14.32;;;;;;;32.86;22.72;101084.81;5097273;27;20239;-70
2022/03/28 11:19:30;;;;;;;17.10;14.90;;;;;;;31.93;23.59;101081.72;5098952;28;20221;-70
2022/03/28 11:22:28;;;;;;;16.85;15.05;;;;;;;31.22;24.11;101087.09;5101882;27;20292;-69
2022/03/28 11:24:58;;;;;;;18.33;15.30;;;;;;;30.21;24.96;101082.72;5097748;28;20268;-70
2022/03/28 11:27:31;;;;;;;22.10;15.80;;;;;;;31.29;24.56;101071.22;5099548;28;20301;-68